createdAt,value
2017-12-31T10:57:37.352Z,24.10
2017-12-31T11:00:04.030Z,24.30
2017-12-31T11:02:30.932Z,24.20
2017-12-31T11:04:58.540Z,23.70
2017-12-31T11:07:25.186Z,24.40
2017-12-31T11:09:51.853Z,24.60
2017-12-31T11:12:18.532Z,25.70
2017-12-31T11:14:45.230Z,26.00
2017-12-31T11:17:11.899Z,25.60
2017-12-31T11:19:38.572Z,25.10
2017-12-31T11:22:06.307Z,24.60
2017-12-31T11:24:32.967Z,24.50
2017-12-31T11:26:59.785Z,24.50
2017-12-31T11:29:27.453Z,23.40
2017-12-31T11:31:54.255Z,23.10
2017-12-31T11:34:21.073Z,23.50
2017-12-31T11:36:47.894Z,24.30
2017-12-31T11:39:14.612Z,25.10
2017-12-31T11:41:41.343Z,25.00
2017-12-31T11:44:08.195Z,23.60
2017-12-31T11:46:34.906Z,22.60
2017-12-31T11:49:01.635Z,22.40
2017-12-31T11:51:28.541Z,21.70
2017-12-31T11:53:57.017Z,21.10
2017-12-31T11:56:23.753Z,21.10
2017-12-31T11:58:51.209Z,20.10
2017-12-31T12:01:18.646Z,19.60
2017-12-31T12:03:45.344Z,19.60
2017-12-31T12:06:12.112Z,19.40
2017-12-31T12:08:38.758Z,19.60
2017-12-31T12:11:05.485Z,18.90
2017-12-31T12:13:32.146Z,19.00
2017-12-31T12:15:58.882Z,19.30
2017-12-31T12:18:25.734Z,19.30
2017-12-31T12:20:52.416Z,19.20
2017-12-31T12:23:19.855Z,20.00
2017-12-31T12:25:46.564Z,20.00
2017-12-31T12:28:13.241Z,20.60
2017-12-31T12:30:39.943Z,20.70
2017-12-31T12:33:06.665Z,21.20
2017-12-31T12:35:34.128Z,21.20
2017-12-31T12:38:00.797Z,21.20
2017-12-31T12:40:27.458Z,21.30
2017-12-31T12:42:54.134Z,21.40
2017-12-31T12:45:21.541Z,21.80
2017-12-31T12:47:48.251Z,21.80
2017-12-31T12:50:15.663Z,21.60
2017-12-31T12:52:42.326Z,21.60
2017-12-31T12:55:09.028Z,21.50
2017-12-31T12:57:35.714Z,21.60
2017-12-31T13:00:02.402Z,21.50
2017-12-31T13:02:29.084Z,21.50
2017-12-31T13:04:55.741Z,21.10
2017-12-31T13:07:22.543Z,20.90
2017-12-31T13:09:49.199Z,20.70
2017-12-31T13:12:15.857Z,20.20
2017-12-31T13:14:42.504Z,20.30
2017-12-31T13:17:10.948Z,20.10
2017-12-31T13:19:37.715Z,19.70
2017-12-31T13:22:04.398Z,19.20
2017-12-31T13:24:31.801Z,18.20
2017-12-31T13:26:58.452Z,18.20
2017-12-31T13:29:25.119Z,18.00
2017-12-31T13:31:51.811Z,17.60
2017-12-31T13:34:18.490Z,17.00
2017-12-31T13:36:45.142Z,16.90
2017-12-31T13:39:11.835Z,16.60
2017-12-31T13:41:38.632Z,16.30
2017-12-31T13:44:05.323Z,15.70
2017-12-31T13:46:32.037Z,15.40
2017-12-31T13:49:00.325Z,14.70
2017-12-31T13:51:27.717Z,14.30
2017-12-31T13:53:54.510Z,14.20
2017-12-31T13:56:21.190Z,13.90
2017-12-31T13:58:47.861Z,13.70
2017-12-31T14:01:14.567Z,13.30
2017-12-31T14:03:42.026Z,12.80
2017-12-31T14:06:09.457Z,12.60
2017-12-31T14:08:36.180Z,12.60
2017-12-31T14:11:02.934Z,12.40
2017-12-31T14:13:29.642Z,12.10
2017-12-31T14:15:56.312Z,11.90
2017-12-31T14:18:23.016Z,11.60
2017-12-31T14:20:49.738Z,11.50
2017-12-31T14:23:17.156Z,11.20
2017-12-31T14:25:43.813Z,11.20
2017-12-31T14:28:10.505Z,11.10
2017-12-31T14:30:37.169Z,11.00
2017-12-31T14:33:03.813Z,10.90
2017-12-31T14:35:30.492Z,10.70
2017-12-31T14:37:58.049Z,10.60
2017-12-31T14:40:24.711Z,10.60
2017-12-31T14:42:51.407Z,10.50
2017-12-31T14:45:18.148Z,10.40
2017-12-31T14:47:45.604Z,10.20
2017-12-31T14:50:12.284Z,10.20
2017-12-31T14:52:38.956Z,10.10
2017-12-31T14:55:06.365Z,9.80
2017-12-31T14:57:33.053Z,9.80
2017-12-31T15:00:00.493Z,9.60
2017-12-31T15:02:27.162Z,9.60
2017-12-31T15:04:53.943Z,9.40
2017-12-31T15:07:20.597Z,9.30
2017-12-31T15:09:47.274Z,9.10
2017-12-31T15:12:13.980Z,9.00
2017-12-31T15:14:40.719Z,8.90
2017-12-31T15:17:07.369Z,8.80
2017-12-31T15:19:34.079Z,8.70
2017-12-31T15:22:01.506Z,8.40
2017-12-31T15:24:29.653Z,8.30
2017-12-31T15:26:56.333Z,8.30
2017-12-31T15:29:23.124Z,8.20
2017-12-31T15:31:49.794Z,8.20
2017-12-31T15:34:16.467Z,8.10
2017-12-31T15:36:43.175Z,8.00
2017-12-31T15:39:09.830Z,8.10
2017-12-31T15:41:36.465Z,8.00
2017-12-31T15:44:03.164Z,7.90
2017-12-31T15:46:29.834Z,7.70
2017-12-31T15:48:56.565Z,7.70
2017-12-31T15:51:23.973Z,7.60
2017-12-31T15:53:50.656Z,7.60
2017-12-31T15:56:17.546Z,7.60
2017-12-31T15:58:45.161Z,7.40
2017-12-31T16:01:12.553Z,7.30
2017-12-31T16:03:39.229Z,7.30
2017-12-31T16:06:05.949Z,7.20
2017-12-31T16:08:32.585Z,7.10
2017-12-31T16:10:59.252Z,7.10
2017-12-31T16:13:25.946Z,6.90
2017-12-31T16:15:53.396Z,6.70
2017-12-31T16:18:22.793Z,6.50
2017-12-31T16:20:52.262Z,6.30
2017-12-31T16:23:21.786Z,6.20
2017-12-31T16:25:50.213Z,6.10
2017-12-31T16:28:17.935Z,6.10
2017-12-31T16:30:45.314Z,6.00
2017-12-31T16:33:13.166Z,6.00
2017-12-31T16:35:40.335Z,5.90
2017-12-31T16:38:09.622Z,5.80
2017-12-31T16:40:36.306Z,5.80
2017-12-31T16:43:03.757Z,5.60
2017-12-31T16:45:31.202Z,5.40
2017-12-31T16:47:57.899Z,5.40
2017-12-31T16:50:24.621Z,5.40
2017-12-31T16:52:51.309Z,5.40
2017-12-31T16:55:18.047Z,5.40
2017-12-31T16:57:44.716Z,5.50
2017-12-31T17:00:11.398Z,5.40
2017-12-31T17:02:38.067Z,5.30
2017-12-31T17:05:04.778Z,5.20
2017-12-31T17:07:31.472Z,5.10
2017-12-31T17:09:58.209Z,5.10
2017-12-31T17:12:24.877Z,5.10
2017-12-31T17:14:53.165Z,5.00
2017-12-31T17:17:20.489Z,5.00
2017-12-31T17:19:47.255Z,5.00
2017-12-31T17:22:13.924Z,4.90
2017-12-31T17:24:40.624Z,4.80
2017-12-31T17:27:07.307Z,4.60
2017-12-31T17:29:34.736Z,4.50
2017-12-31T17:32:01.412Z,4.50
2017-12-31T17:34:28.090Z,4.50
2017-12-31T17:36:54.775Z,4.40
2017-12-31T17:39:22.252Z,4.30
2017-12-31T17:41:49.641Z,4.10
2017-12-31T17:44:16.340Z,4.10
2017-12-31T17:46:44.002Z,4.10
2017-12-31T17:49:11.469Z,3.90
2017-12-31T17:51:38.160Z,3.90
2017-12-31T17:54:04.845Z,3.80
2017-12-31T17:56:31.555Z,3.70
2017-12-31T17:58:58.222Z,3.60
2017-12-31T18:01:24.960Z,3.60
2017-12-31T18:03:51.658Z,3.50
2017-12-31T18:06:18.295Z,3.40
2017-12-31T18:08:45.050Z,3.50
2017-12-31T18:11:11.781Z,3.50
2017-12-31T18:13:39.175Z,3.50
2017-12-31T18:16:05.931Z,3.50
2017-12-31T18:18:32.634Z,3.50
2017-12-31T18:20:59.291Z,3.50
2017-12-31T18:23:25.993Z,3.50
2017-12-31T18:25:52.753Z,3.40
2017-12-31T18:28:19.446Z,3.40
2017-12-31T18:30:46.104Z,3.40
2017-12-31T18:33:12.828Z,3.30
2017-12-31T18:35:40.517Z,3.30
2017-12-31T18:38:07.207Z,3.20
2017-12-31T18:40:33.955Z,3.20
2017-12-31T18:43:01.502Z,3.10
2017-12-31T18:45:28.928Z,3.00
2017-12-31T18:47:55.596Z,2.90
2017-12-31T18:50:23.026Z,2.80
2017-12-31T18:52:49.669Z,2.80
2017-12-31T18:55:16.431Z,2.80
2017-12-31T18:57:43.103Z,2.70
2017-12-31T19:00:09.801Z,2.60
2017-12-31T19:02:36.487Z,2.60
2017-12-31T19:05:03.986Z,2.60
2017-12-31T19:07:30.826Z,2.60
2017-12-31T19:09:57.481Z,2.60
2017-12-31T19:12:24.202Z,2.50
2017-12-31T19:14:50.986Z,2.40
2017-12-31T19:17:19.122Z,2.30
2017-12-31T19:19:45.785Z,2.40
2017-12-31T19:22:12.978Z,2.30
2017-12-31T19:24:39.657Z,2.30
2017-12-31T19:27:06.328Z,2.30
2017-12-31T19:29:33.129Z,2.30
2017-12-31T19:32:00.617Z,2.30
2017-12-31T19:34:27.366Z,2.30
2017-12-31T19:36:54.058Z,2.20
2017-12-31T19:39:20.771Z,2.20
2017-12-31T19:41:47.600Z,2.20
2017-12-31T19:44:14.255Z,2.20
2017-12-31T19:46:40.961Z,2.20
2017-12-31T19:49:07.610Z,2.20
2017-12-31T19:51:34.282Z,2.10
2017-12-31T19:54:00.982Z,2.00
2017-12-31T19:56:29.235Z,2.00
2017-12-31T19:58:55.902Z,2.00
2017-12-31T20:01:23.342Z,1.90
2017-12-31T20:03:50.015Z,1.90
2017-12-31T20:06:16.741Z,1.90
2017-12-31T20:08:44.146Z,1.90
2017-12-31T20:11:10.837Z,1.80
2017-12-31T20:13:37.507Z,1.90
2017-12-31T20:16:04.264Z,1.90
2017-12-31T20:18:30.934Z,1.90
2017-12-31T20:20:57.817Z,1.90
2017-12-31T20:23:24.467Z,1.80
2017-12-31T20:25:51.904Z,1.70
2017-12-31T20:28:18.668Z,1.70
2017-12-31T20:30:46.080Z,1.80
2017-12-31T20:33:12.742Z,1.70
2017-12-31T20:35:39.439Z,1.80
2017-12-31T20:38:06.211Z,1.70
2017-12-31T20:40:33.736Z,1.70
2017-12-31T20:43:00.491Z,1.70
2017-12-31T20:45:27.150Z,1.70
2017-12-31T20:47:53.833Z,1.70
2017-12-31T20:50:20.641Z,1.70
2017-12-31T20:52:47.324Z,1.60
2017-12-31T20:55:14.046Z,1.50
2017-12-31T20:57:41.768Z,1.50
2017-12-31T21:00:08.426Z,1.50
2017-12-31T21:02:35.138Z,1.50
2017-12-31T21:05:02.550Z,1.50
2017-12-31T21:07:29.237Z,1.40
2017-12-31T21:09:57.656Z,1.40
2017-12-31T21:12:24.430Z,1.40
2017-12-31T21:14:51.120Z,1.40
2017-12-31T21:17:18.513Z,1.40
2017-12-31T21:19:45.224Z,1.40
2017-12-31T21:22:12.648Z,1.30
2017-12-31T21:24:39.433Z,1.20
2017-12-31T21:27:07.901Z,1.20
2017-12-31T21:29:35.359Z,1.20
2017-12-31T21:32:02.048Z,1.20
2017-12-31T21:34:28.729Z,1.20
2017-12-31T21:36:55.396Z,1.20
2017-12-31T21:39:22.817Z,1.30
2017-12-31T21:41:49.528Z,1.30
2017-12-31T21:44:16.299Z,1.30
2017-12-31T21:46:42.954Z,1.30
2017-12-31T21:49:09.633Z,1.30
2017-12-31T21:51:37.094Z,1.20
2017-12-31T21:54:04.526Z,1.20
2017-12-31T21:56:31.283Z,1.20
2017-12-31T21:58:57.993Z,1.30
2017-12-31T22:01:24.699Z,1.30
2017-12-31T22:03:52.137Z,1.30
2017-12-31T22:06:19.573Z,1.30
2017-12-31T22:08:46.257Z,1.20
2017-12-31T22:11:13.773Z,1.30
2017-12-31T22:13:40.445Z,1.20
2017-12-31T22:16:07.937Z,1.30
2017-12-31T22:18:34.665Z,1.20
2017-12-31T22:21:02.279Z,1.30
2017-12-31T22:23:28.934Z,1.30
2017-12-31T22:25:56.553Z,1.30
2017-12-31T22:28:23.232Z,1.40
2017-12-31T22:30:49.892Z,1.30
2017-12-31T22:33:16.613Z,1.20
2017-12-31T22:35:43.295Z,1.20
2017-12-31T22:38:10.269Z,1.10
2017-12-31T22:40:36.938Z,1.10
2017-12-31T22:43:03.639Z,1.10
2017-12-31T22:45:31.138Z,1.10
2017-12-31T22:47:57.908Z,1.00
2017-12-31T22:50:24.537Z,1.10
2017-12-31T22:52:51.190Z,1.10
2017-12-31T22:55:17.921Z,1.10
2017-12-31T22:57:44.628Z,1.10
2017-12-31T23:00:12.033Z,0.90
2017-12-31T23:02:38.726Z,0.90
2017-12-31T23:05:06.109Z,0.90
2017-12-31T23:07:32.789Z,0.80
2017-12-31T23:10:00.416Z,0.80
2017-12-31T23:12:27.928Z,0.80
2017-12-31T23:14:54.582Z,0.70
2017-12-31T23:17:22.030Z,0.70
2017-12-31T23:19:48.729Z,0.70
2017-12-31T23:22:15.402Z,0.70
2017-12-31T23:24:42.190Z,0.80
2017-12-31T23:27:09.636Z,0.80
2017-12-31T23:29:36.567Z,0.80
2017-12-31T23:32:03.290Z,0.80
2017-12-31T23:34:30.095Z,0.70
2017-12-31T23:36:57.511Z,0.70
2017-12-31T23:39:24.204Z,0.70
2017-12-31T23:41:50.906Z,0.70
2017-12-31T23:44:17.649Z,0.60
2017-12-31T23:46:44.362Z,0.60
2017-12-31T23:49:11.101Z,0.50
2017-12-31T23:51:37.799Z,0.50
2017-12-31T23:54:04.506Z,0.50
2017-12-31T23:56:31.158Z,0.50
2017-12-31T23:58:57.867Z,0.50
